Saint-Raphael, Canada
Current Conditions -  °F | °C
As of 8:08 PM on Saturday 25 Oct 2014 (Local Time) from CYQB Reporting Station
Overcast Overcast  
Wind Chill: 38°   Ceiling: 2500
Heat Index: 45°   Visibility: 10mi
Dew Point: 43°   Wind: 13mph
Humidity: 93%   Direction: 70°ENE
Pressure: 29.47"   Gusts: 21mph
Location:  46.78°N, 70.75°W
Report Text: CYQB 260008Z 07011G18KT 10SM FEW009 OVC025 07/06 A2947 RMK SF1SC7 SLP982
Loading
Personal Weather Stations






























Interactive Weather Map
Tropical Storm Tracking
New forecast layout! Learn more

10-Day Weather Forecast

Advertisements
Track Severe Weather on mobile